createdAt,value
2023-05-19T00:01:20.272Z,5.90
2023-05-19T00:03:57.815Z,5.90
2023-05-19T00:06:27.308Z,5.80
2023-05-19T00:09:05.582Z,5.80
2023-05-19T00:11:33.592Z,5.70
2023-05-19T00:14:00.709Z,5.70
2023-05-19T00:16:30.875Z,5.60
2023-05-19T00:19:02.657Z,5.60
2023-05-19T00:21:31.253Z,5.60
2023-05-19T00:23:58.346Z,5.50
2023-05-19T00:26:27.081Z,5.50
2023-05-19T00:29:04.211Z,5.50
2023-05-19T00:31:31.774Z,5.50
2023-05-19T00:33:58.863Z,5.50
2023-05-19T00:36:26.190Z,5.50
2023-05-19T00:38:53.284Z,5.50
2023-05-19T00:41:21.079Z,5.40
2023-05-19T00:43:48.195Z,5.40
2023-05-19T00:46:15.376Z,5.30
2023-05-19T00:48:44.714Z,5.30
2023-05-19T00:51:14.908Z,5.20
2023-05-19T00:53:42.475Z,5.20
2023-05-19T00:56:09.729Z,5.20
2023-05-19T00:58:37.151Z,5.20
2023-05-19T01:01:05.313Z,5.20
2023-05-19T01:03:35.169Z,5.20
2023-05-19T01:06:07.158Z,5.10
2023-05-19T01:08:36.613Z,5.20
2023-05-19T01:11:04.877Z,5.10
2023-05-19T01:13:32.253Z,5.10
2023-05-19T01:16:08.898Z,5.00
2023-05-19T01:18:50.025Z,4.90
2023-05-19T01:21:36.204Z,4.90
2023-05-19T01:24:35.174Z,4.90
2023-05-19T01:27:25.819Z,4.90
2023-05-19T01:30:14.407Z,4.80
2023-05-19T01:32:42.450Z,4.70
2023-05-19T01:35:09.675Z,4.70
2023-05-19T01:37:38.693Z,4.70
2023-05-19T01:40:07.912Z,4.70
2023-05-19T01:42:37.948Z,4.70
2023-05-19T01:45:06.755Z,4.70
2023-05-19T01:47:38.331Z,4.70
2023-05-19T01:50:06.012Z,4.90
2023-05-19T01:52:33.403Z,4.90
2023-05-19T01:55:00.519Z,4.90
2023-05-19T01:57:58.258Z,5.00
2023-05-19T02:00:51.805Z,5.00
2023-05-19T02:03:53.918Z,5.00
2023-05-19T02:06:33.195Z,5.10
2023-05-19T02:09:16.051Z,5.00
2023-05-19T02:12:01.167Z,5.00
2023-05-19T02:14:40.232Z,5.10
2023-05-19T02:17:08.203Z,5.10
2023-05-19T02:19:39.090Z,5.10
2023-05-19T02:22:07.303Z,5.10
2023-05-19T02:24:34.034Z,5.10
2023-05-19T02:27:01.112Z,5.10
2023-05-19T02:29:28.192Z,5.10
2023-05-19T02:31:55.348Z,5.00
2023-05-19T02:34:22.945Z,4.90
2023-05-19T02:36:50.671Z,4.80
2023-05-19T02:39:17.950Z,4.80
2023-05-19T02:41:44.973Z,4.80
2023-05-19T02:44:12.016Z,4.70
2023-05-19T02:46:38.989Z,4.70
2023-05-19T02:49:06.157Z,4.70
2023-05-19T02:51:33.094Z,4.70
2023-05-19T02:54:00.391Z,4.70
2023-05-19T02:56:28.175Z,4.80
2023-05-19T02:58:55.130Z,4.90
2023-05-19T03:01:23.212Z,4.80
2023-05-19T03:03:50.364Z,4.80
2023-05-19T03:06:18.191Z,4.80
2023-05-19T03:08:45.136Z,4.80
2023-05-19T03:11:15.442Z,4.80
2023-05-19T03:13:42.462Z,4.80
2023-05-19T03:16:09.372Z,4.80
2023-05-19T03:18:36.518Z,4.90
2023-05-19T03:21:03.554Z,4.90
2023-05-19T03:23:30.588Z,4.90
2023-05-19T03:25:58.087Z,4.90
2023-05-19T03:28:28.345Z,4.90
2023-05-19T03:30:57.149Z,4.90
2023-05-19T03:33:29.820Z,4.90
2023-05-19T03:35:57.775Z,4.90
2023-05-19T03:38:25.382Z,5.00
2023-05-19T03:40:57.544Z,5.00
2023-05-19T03:43:24.951Z,5.00
2023-05-19T03:45:59.015Z,5.00
2023-05-19T03:48:52.092Z,5.00
2023-05-19T03:51:24.772Z,5.00
2023-05-19T03:53:56.089Z,5.10
2023-05-19T03:56:25.580Z,5.10
2023-05-19T03:58:54.726Z,5.20
2023-05-19T04:01:21.697Z,5.30
2023-05-19T04:03:48.736Z,5.30
2023-05-19T04:06:15.692Z,5.50
2023-05-19T04:08:44.202Z,5.50
2023-05-19T04:11:11.343Z,5.60
2023-05-19T04:13:38.189Z,5.70
2023-05-19T04:16:05.974Z,5.70
2023-05-19T04:18:32.843Z,5.70
2023-05-19T04:20:59.692Z,5.80
2023-05-19T04:23:26.583Z,5.90
2023-05-19T04:25:54.474Z,6.00
2023-05-19T04:28:21.637Z,6.10
2023-05-19T04:30:48.738Z,6.10
2023-05-19T04:33:16.313Z,6.20
2023-05-19T04:35:44.200Z,6.30
2023-05-19T04:38:12.558Z,6.40
2023-05-19T04:40:42.253Z,6.50
2023-05-19T04:43:09.529Z,6.60
2023-05-19T04:45:37.760Z,6.80
2023-05-19T04:48:06.082Z,6.90
2023-05-19T04:50:34.290Z,7.00
2023-05-19T04:53:01.519Z,7.20
2023-05-19T04:55:28.907Z,7.30
2023-05-19T04:57:56.034Z,7.40
2023-05-19T05:00:23.293Z,7.50
2023-05-19T05:02:57.656Z,7.70
2023-05-19T05:05:27.075Z,7.80
2023-05-19T05:07:54.165Z,8.00
2023-05-19T05:10:23.155Z,8.20
2023-05-19T05:12:50.776Z,8.40
2023-05-19T05:15:18.153Z,8.50
2023-05-19T05:17:48.747Z,8.70
2023-05-19T05:20:16.444Z,8.80
2023-05-19T05:22:43.672Z,9.00
2023-05-19T05:25:12.229Z,9.10
2023-05-19T05:27:39.338Z,9.30
2023-05-19T05:30:08.602Z,9.40
2023-05-19T05:32:36.868Z,9.50
2023-05-19T05:35:09.944Z,9.60
2023-05-19T05:37:38.165Z,9.80
2023-05-19T05:40:07.047Z,10.00
2023-05-19T05:42:36.073Z,10.20
2023-05-19T05:45:03.512Z,10.40
2023-05-19T05:47:31.654Z,10.60
2023-05-19T05:49:59.907Z,10.80
2023-05-19T05:52:30.576Z,11.00
2023-05-19T05:54:59.735Z,11.20
2023-05-19T05:57:30.478Z,11.40
2023-05-19T05:59:57.626Z,11.50
2023-05-19T06:02:24.824Z,11.50
2023-05-19T06:04:54.102Z,11.60
2023-05-19T06:07:21.577Z,11.80
2023-05-19T06:09:48.472Z,11.90
2023-05-19T06:12:15.932Z,12.00
2023-05-19T06:14:47.435Z,12.00
2023-05-19T06:17:17.245Z,11.90
2023-05-19T06:19:44.185Z,11.90
2023-05-19T06:22:11.192Z,11.90
2023-05-19T06:24:39.604Z,12.00
2023-05-19T06:27:09.243Z,12.00
2023-05-19T06:29:36.284Z,12.00
2023-05-19T06:32:07.435Z,12.10
2023-05-19T06:34:35.074Z,12.20
2023-05-19T06:37:02.465Z,12.20
2023-05-19T06:39:31.102Z,12.40
2023-05-19T06:41:58.073Z,12.40
2023-05-19T06:44:43.907Z,12.50
2023-05-19T06:47:12.313Z,12.70
2023-05-19T06:49:39.368Z,12.90
2023-05-19T06:52:06.453Z,13.00
2023-05-19T06:54:33.704Z,13.10
2023-05-19T06:57:00.717Z,13.10
2023-05-19T06:59:28.126Z,13.20
2023-05-19T07:01:56.129Z,13.20
2023-05-19T07:04:23.284Z,13.20
2023-05-19T07:06:50.366Z,13.30
2023-05-19T07:09:17.764Z,13.40
2023-05-19T07:11:47.353Z,13.50
2023-05-19T07:14:14.462Z,13.50
2023-05-19T07:16:41.525Z,13.60
2023-05-19T07:19:08.596Z,13.70
2023-05-19T07:21:35.797Z,13.70
2023-05-19T07:24:02.889Z,13.90
2023-05-19T07:26:29.985Z,14.10
2023-05-19T07:28:57.821Z,14.30
2023-05-19T07:31:25.311Z,14.40
2023-05-19T07:33:54.456Z,14.50
2023-05-19T07:36:21.892Z,14.70
2023-05-19T07:38:49.425Z,14.90
2023-05-19T07:41:16.518Z,15.10
2023-05-19T07:43:43.651Z,15.20
2023-05-19T07:46:11.386Z,15.20
2023-05-19T07:48:38.465Z,15.30
2023-05-19T07:51:05.512Z,15.30
2023-05-19T07:53:32.841Z,15.40
2023-05-19T07:55:59.785Z,15.60
2023-05-19T07:58:26.787Z,15.70
2023-05-19T08:00:53.769Z,15.70
2023-05-19T08:03:21.128Z,15.70
2023-05-19T08:05:48.502Z,15.80
2023-05-19T08:08:16.743Z,15.90
2023-05-19T08:10:44.013Z,16.20
2023-05-19T08:13:10.856Z,16.30
2023-05-19T08:15:38.162Z,16.50
2023-05-19T08:18:05.371Z,16.80
2023-05-19T08:20:33.072Z,17.20
2023-05-19T08:23:00.521Z,17.30
2023-05-19T08:25:30.198Z,17.30
2023-05-19T08:27:57.244Z,17.50
2023-05-19T08:30:24.360Z,17.60
2023-05-19T08:32:51.698Z,17.80
2023-05-19T08:35:19.278Z,17.70
2023-05-19T08:37:46.134Z,17.70
2023-05-19T08:40:17.805Z,17.80
2023-05-19T08:42:46.077Z,17.80
2023-05-19T08:45:14.189Z,17.80
2023-05-19T08:47:47.136Z,17.80
2023-05-19T08:50:21.321Z,17.80
2023-05-19T08:53:21.106Z,17.80
2023-05-19T08:56:04.164Z,17.90
2023-05-19T08:58:32.386Z,18.10
2023-05-19T09:00:59.888Z,18.20
2023-05-19T09:03:29.013Z,18.10
2023-05-19T09:05:56.496Z,18.20
2023-05-19T09:08:24.381Z,18.30
2023-05-19T09:10:51.523Z,18.40
2023-05-19T09:13:19.304Z,18.40
2023-05-19T09:15:47.144Z,18.20
2023-05-19T09:18:17.362Z,18.30
2023-05-19T09:20:46.241Z,18.40
2023-05-19T09:23:15.933Z,18.60
2023-05-19T09:25:49.949Z,18.60
2023-05-19T09:28:27.940Z,18.50
2023-05-19T09:31:08.633Z,18.70
2023-05-19T09:33:37.965Z,18.40
2023-05-19T09:36:06.623Z,18.30
2023-05-19T09:38:34.732Z,18.30
2023-05-19T09:41:01.780Z,18.20
2023-05-19T09:43:36.557Z,18.10
2023-05-19T09:46:08.067Z,18.10
2023-05-19T09:48:36.669Z,18.50
2023-05-19T09:51:06.501Z,18.50
2023-05-19T09:53:35.045Z,18.50
2023-05-19T09:56:03.695Z,18.30
2023-05-19T09:58:37.793Z,18.40
2023-05-19T10:01:06.487Z,18.40
2023-05-19T10:03:34.215Z,18.30
2023-05-19T10:06:02.040Z,18.30
2023-05-19T10:08:30.814Z,18.60
2023-05-19T10:10:58.494Z,18.80
2023-05-19T10:13:31.114Z,18.80
2023-05-19T10:16:00.480Z,18.90
2023-05-19T10:18:29.831Z,19.10
2023-05-19T10:20:59.100Z,19.30
2023-05-19T10:23:26.656Z,19.30
2023-05-19T10:25:57.548Z,19.30
2023-05-19T10:28:32.088Z,19.60
2023-05-19T10:31:01.741Z,19.70
2023-05-19T10:34:06.909Z,20.00
2023-05-19T10:36:39.920Z,20.40
2023-05-19T10:39:15.350Z,20.60
2023-05-19T10:41:50.742Z,20.70
2023-05-19T10:44:26.864Z,20.80
2023-05-19T10:46:56.718Z,21.10
2023-05-19T10:49:24.830Z,20.80
2023-05-19T10:51:58.213Z,20.60
2023-05-19T10:54:43.622Z,20.60
2023-05-19T10:57:16.298Z,20.60
2023-05-19T10:59:47.271Z,20.60
2023-05-19T11:02:44.113Z,20.70
2023-05-19T11:05:18.115Z,21.10
2023-05-19T11:07:56.293Z,21.40
2023-05-19T11:10:24.478Z,21.40
2023-05-19T11:12:52.249Z,21.30
2023-05-19T11:15:26.485Z,21.40
2023-05-19T11:17:54.042Z,21.50
2023-05-19T11:20:24.018Z,21.60
2023-05-19T11:23:14.710Z,21.70
2023-05-19T11:25:54.004Z,21.50
2023-05-19T11:28:26.579Z,21.60
2023-05-19T11:30:59.201Z,21.00
2023-05-19T11:33:27.800Z,21.00
2023-05-19T11:35:58.625Z,21.00
2023-05-19T11:38:30.394Z,21.40
2023-05-19T11:40:57.632Z,21.80
2023-05-19T11:43:25.942Z,22.00
2023-05-19T11:45:55.313Z,22.00
2023-05-19T11:48:24.886Z,22.20
2023-05-19T11:50:52.634Z,22.40
2023-05-19T11:53:20.887Z,22.00
2023-05-19T11:55:49.229Z,22.50
2023-05-19T11:58:17.420Z,22.70
2023-05-19T12:00:49.192Z,23.10
2023-05-19T12:03:21.417Z,23.10
2023-05-19T12:05:49.694Z,22.90
2023-05-19T12:08:18.668Z,22.80
2023-05-19T12:10:51.865Z,23.10
2023-05-19T12:13:19.975Z,23.10
2023-05-19T12:15:47.303Z,23.60
2023-05-19T12:18:14.587Z,23.60
2023-05-19T12:20:42.195Z,23.20
2023-05-19T12:23:09.343Z,23.20
2023-05-19T12:25:38.534Z,23.10
2023-05-19T12:28:07.310Z,23.30
2023-05-19T12:30:38.955Z,24.20
2023-05-19T12:33:14.623Z,24.80
2023-05-19T12:35:43.514Z,25.70
2023-05-19T12:38:10.844Z,26.50
2023-05-19T12:40:42.104Z,25.80
2023-05-19T12:43:19.079Z,24.00
2023-05-19T12:45:46.047Z,22.90
2023-05-19T13:23:52.288Z,24.50
2023-05-19T13:26:29.741Z,22.60
2023-05-19T13:28:57.203Z,21.90
2023-05-19T13:31:24.379Z,21.50
2023-05-19T13:33:51.565Z,20.90
2023-05-19T13:36:18.530Z,20.60
2023-05-19T13:38:45.761Z,20.50
2023-05-19T13:41:13.885Z,21.10
2023-05-19T13:43:42.224Z,22.10
2023-05-19T13:46:09.372Z,23.30
2023-05-19T13:48:36.446Z,24.50
2023-05-19T13:51:03.454Z,25.40
2023-05-19T13:53:32.877Z,25.90
2023-05-19T13:56:00.590Z,25.80
2023-05-19T13:58:27.705Z,26.80
2023-05-19T14:00:56.787Z,26.60
2023-05-19T14:05:52.271Z,23.90
2023-05-19T14:08:19.395Z,23.20
2023-05-19T14:10:47.029Z,22.30
2023-05-19T14:13:31.617Z,21.60
2023-05-19T14:15:59.908Z,21.60
2023-05-19T14:18:27.047Z,21.40
2023-05-19T14:20:54.108Z,21.20
2023-05-19T14:23:21.611Z,21.40
2023-05-19T14:25:48.898Z,22.20
2023-05-19T14:28:15.928Z,23.80
2023-05-19T14:30:43.340Z,25.30
2023-05-19T14:33:10.459Z,26.00
2023-05-19T14:35:37.454Z,25.10
2023-05-19T14:38:04.572Z,23.90
2023-05-19T14:40:31.642Z,23.20
2023-05-19T14:42:58.696Z,23.10
2023-05-19T14:45:25.774Z,22.60
2023-05-19T14:47:53.053Z,22.80
2023-05-19T14:50:20.550Z,23.00
2023-05-19T14:52:47.565Z,24.60
2023-05-19T14:55:14.550Z,25.80
2023-05-19T14:57:41.638Z,26.60
2023-05-19T15:00:10.263Z,27.40
2023-05-19T15:02:37.564Z,27.10
2023-05-19T15:05:05.064Z,26.80
2023-05-19T15:07:32.180Z,25.90
2023-05-19T15:09:59.347Z,24.20
2023-05-19T15:12:26.427Z,23.20
2023-05-19T15:14:53.512Z,22.10
2023-05-19T15:17:20.636Z,22.00
2023-05-19T15:19:47.955Z,21.60
2023-05-19T15:22:14.968Z,21.60
2023-05-19T15:24:41.940Z,21.70
2023-05-19T15:27:09.402Z,22.60
2023-05-19T15:29:36.563Z,22.90
2023-05-19T15:32:03.881Z,23.20
2023-05-19T15:34:31.010Z,23.20
2023-05-19T15:36:57.961Z,23.80
2023-05-19T15:39:25.717Z,23.80
2023-05-19T15:41:52.855Z,23.90
2023-05-19T15:44:20.146Z,23.90
2023-05-19T15:46:47.149Z,23.90
2023-05-19T15:49:14.419Z,24.50
2023-05-19T15:51:42.093Z,25.00
2023-05-19T15:54:09.387Z,25.30
2023-05-19T15:56:36.488Z,25.50
2023-05-19T15:59:03.546Z,25.20
2023-05-19T16:01:31.102Z,24.90
2023-05-19T16:03:58.245Z,24.40
2023-05-19T16:06:27.560Z,23.50
2023-05-19T16:08:54.867Z,22.70
2023-05-19T16:11:22.653Z,22.00
2023-05-19T16:13:50.100Z,21.90
2023-05-19T16:16:17.350Z,22.50
2023-05-19T16:18:46.188Z,22.90
2023-05-19T16:21:13.887Z,23.10
2023-05-19T16:23:41.059Z,23.90
2023-05-19T16:26:08.738Z,24.00
2023-05-19T16:28:36.794Z,23.60
2023-05-19T16:31:03.908Z,23.50
2023-05-19T16:33:31.032Z,23.20
2023-05-19T16:36:00.141Z,23.10
2023-05-19T16:38:27.658Z,22.30
2023-05-19T16:40:54.581Z,21.60
2023-05-19T16:43:21.812Z,21.10
2023-05-19T16:45:48.844Z,20.90
2023-05-19T16:48:16.270Z,20.90
2023-05-19T16:50:43.263Z,20.80
2023-05-19T16:53:10.462Z,20.60
2023-05-19T16:55:37.518Z,20.50
2023-05-19T16:58:04.739Z,20.30
2023-05-19T17:00:32.558Z,20.00
2023-05-19T17:03:00.271Z,20.00
2023-05-19T17:05:28.029Z,19.90
2023-05-19T17:07:55.199Z,20.10
2023-05-19T17:10:22.599Z,20.20
2023-05-19T17:12:49.709Z,20.30
2023-05-19T17:15:16.890Z,20.20
2023-05-19T17:17:44.271Z,20.10
2023-05-19T17:20:12.009Z,19.90
2023-05-19T17:22:39.691Z,19.80
2023-05-19T17:25:07.538Z,19.60
2023-05-19T17:27:34.579Z,19.70
2023-05-19T17:30:01.991Z,19.90
2023-05-19T17:32:36.090Z,20.10
2023-05-19T17:35:05.509Z,20.10
2023-05-19T17:37:33.326Z,20.10
2023-05-19T17:40:00.947Z,20.20
2023-05-19T17:42:29.253Z,20.20
2023-05-19T17:44:56.354Z,20.30
2023-05-19T17:47:23.655Z,20.20
2023-05-19T17:49:53.098Z,19.60
2023-05-19T17:52:21.568Z,19.30
2023-05-19T17:54:49.052Z,19.10
2023-05-19T17:57:17.566Z,19.00
2023-05-19T17:59:45.218Z,18.70
2023-05-19T18:02:12.631Z,18.50
2023-05-19T18:04:40.669Z,18.60
2023-05-19T18:07:09.041Z,18.60
2023-05-19T18:09:40.686Z,18.50
2023-05-19T18:12:08.056Z,18.30
2023-05-19T18:14:35.264Z,18.00
2023-05-19T18:17:02.342Z,17.80
2023-05-19T18:19:29.725Z,17.50
2023-05-19T18:21:57.124Z,17.40
2023-05-19T18:24:24.275Z,17.20
2023-05-19T18:26:51.682Z,17.10
2023-05-19T18:29:19.028Z,17.00
2023-05-19T18:31:46.521Z,16.90
2023-05-19T18:34:14.358Z,16.80
2023-05-19T18:36:41.677Z,16.70
2023-05-19T18:39:08.949Z,16.60
2023-05-19T18:41:37.625Z,16.60
2023-05-19T18:44:07.868Z,16.50
2023-05-19T18:46:35.125Z,16.30
2023-05-19T18:49:03.867Z,16.20
2023-05-19T18:51:33.388Z,16.10
2023-05-19T18:54:01.046Z,15.90
2023-05-19T18:56:31.107Z,15.70
2023-05-19T18:58:58.565Z,15.60
2023-05-19T19:01:26.177Z,15.50
2023-05-19T19:03:54.169Z,15.40
2023-05-19T19:06:23.228Z,15.20
2023-05-19T19:08:50.937Z,15.10
2023-05-19T19:11:18.165Z,14.90
2023-05-19T19:13:46.431Z,14.80
2023-05-19T19:16:13.582Z,14.70
2023-05-19T19:18:40.860Z,14.60
2023-05-19T19:21:08.644Z,14.50
2023-05-19T19:23:35.734Z,14.50
2023-05-19T19:26:02.898Z,14.40
2023-05-19T19:28:30.222Z,14.30
2023-05-19T19:30:57.258Z,14.30
2023-05-19T19:33:24.901Z,14.30
2023-05-19T19:35:52.010Z,14.30
2023-05-19T19:38:19.185Z,14.20
2023-05-19T19:40:46.439Z,14.20
2023-05-19T19:43:13.520Z,14.10
2023-05-19T19:45:41.741Z,14.00
2023-05-19T19:48:08.788Z,13.90
2023-05-19T19:50:36.408Z,13.80
2023-05-19T19:53:03.664Z,13.80
2023-05-19T19:55:30.891Z,13.70
2023-05-19T19:57:57.938Z,13.70
2023-05-19T20:00:25.244Z,13.60
2023-05-19T20:03:04.622Z,13.60
2023-05-19T20:05:33.299Z,13.50
2023-05-19T20:08:00.384Z,13.50
2023-05-19T20:10:27.437Z,13.40
2023-05-19T20:12:54.840Z,13.30
2023-05-19T20:15:21.785Z,13.30
2023-05-19T20:17:50.015Z,13.20
2023-05-19T20:20:17.015Z,13.20
2023-05-19T20:22:45.852Z,13.10
2023-05-19T20:25:13.376Z,13.10
2023-05-19T20:27:40.542Z,13.00
2023-05-19T20:30:08.282Z,13.00
2023-05-19T20:32:35.995Z,12.90
2023-05-19T20:35:03.103Z,12.90
2023-05-19T20:37:30.092Z,12.80
2023-05-19T20:39:57.460Z,12.70
2023-05-19T20:42:24.373Z,12.70
2023-05-19T20:44:52.175Z,12.60
2023-05-19T20:47:19.640Z,12.60
2023-05-19T20:49:48.327Z,12.50
2023-05-19T20:52:19.066Z,12.50
2023-05-19T20:54:46.534Z,12.50
2023-05-19T20:57:13.687Z,12.40
2023-05-19T20:59:40.835Z,12.40
2023-05-19T21:02:09.440Z,12.40
2023-05-19T21:04:36.714Z,12.40
2023-05-19T21:07:03.894Z,12.40
2023-05-19T21:09:30.988Z,12.40
2023-05-19T21:11:58.126Z,12.30
2023-05-19T21:14:25.487Z,12.30
2023-05-19T21:16:56.547Z,12.30
2023-05-19T21:19:23.841Z,12.20
2023-05-19T21:21:51.030Z,12.20
2023-05-19T21:24:18.155Z,12.10
2023-05-19T21:26:45.699Z,12.10
2023-05-19T21:29:13.031Z,12.00
2023-05-19T21:31:40.152Z,11.90
2023-05-19T21:34:07.737Z,11.90
2023-05-19T21:36:36.071Z,11.90
2023-05-19T21:39:04.565Z,11.90
2023-05-19T21:41:32.520Z,11.90
2023-05-19T21:44:00.746Z,11.90
2023-05-19T21:46:29.232Z,11.90
2023-05-19T21:48:56.468Z,11.90
2023-05-19T21:51:23.506Z,11.90
2023-05-19T21:53:50.677Z,11.90
2023-05-19T21:56:17.771Z,11.90
2023-05-19T21:58:44.936Z,11.90
2023-05-19T22:01:12.093Z,11.80
2023-05-19T22:03:39.708Z,11.80
2023-05-19T22:06:08.336Z,11.80
2023-05-19T22:08:35.570Z,11.70
2023-05-19T22:11:02.926Z,11.60
2023-05-19T22:13:31.897Z,11.60
2023-05-19T22:15:59.002Z,11.50
2023-05-19T22:18:26.206Z,11.40
2023-05-19T22:20:53.248Z,11.30
2023-05-19T22:23:20.617Z,11.30
2023-05-19T22:25:47.652Z,11.30
2023-05-19T22:28:14.976Z,11.20
2023-05-19T22:30:42.277Z,11.20
2023-05-19T22:33:10.050Z,11.10
2023-05-19T22:35:37.418Z,11.00
2023-05-19T22:38:07.462Z,11.00
2023-05-19T22:40:36.939Z,10.90
2023-05-19T22:43:03.984Z,10.80
2023-05-19T22:45:31.985Z,10.80
2023-05-19T22:47:59.343Z,10.80
2023-05-19T22:50:26.513Z,10.70
2023-05-19T22:52:53.694Z,10.70
2023-05-19T22:55:21.432Z,10.60
2023-05-19T22:57:49.198Z,10.60
2023-05-19T23:00:18.744Z,10.60
2023-05-19T23:02:45.994Z,10.50
2023-05-19T23:05:13.102Z,10.50
2023-05-19T23:07:40.168Z,10.50
2023-05-19T23:10:07.734Z,10.50
2023-05-19T23:12:34.844Z,10.40
2023-05-19T23:15:02.331Z,10.40
2023-05-19T23:17:29.416Z,10.40
2023-05-19T23:19:57.850Z,10.40
2023-05-19T23:22:25.519Z,10.30
2023-05-19T23:24:52.507Z,10.30
2023-05-19T23:27:20.603Z,10.30
2023-05-19T23:29:49.066Z,10.30
2023-05-19T23:32:16.118Z,10.30
2023-05-19T23:34:43.297Z,10.30
2023-05-19T23:37:10.443Z,10.30
2023-05-19T23:39:38.245Z,10.30
2023-05-19T23:42:06.230Z,10.30
2023-05-19T23:44:33.233Z,10.20
2023-05-19T23:47:00.392Z,10.30
2023-05-19T23:49:27.606Z,10.30
2023-05-19T23:51:54.781Z,10.30
2023-05-19T23:54:21.883Z,10.30
2023-05-19T23:56:49.110Z,10.30
2023-05-19T23:59:16.062Z,10.30
